createdAt,value
2024-01-05T00:00:01.174Z,56.16
2024-01-05T00:02:28.392Z,56.21
2024-01-05T00:04:55.535Z,56.17
2024-01-05T00:07:22.850Z,55.71
2024-01-05T00:09:50.061Z,55.55
2024-01-05T00:12:17.502Z,55.22
2024-01-05T00:14:44.650Z,55.42
2024-01-05T00:17:12.000Z,55.56
2024-01-05T00:19:39.256Z,55.69
2024-01-05T00:22:06.467Z,56.15
2024-01-05T00:24:33.817Z,56.19
2024-01-05T00:27:01.182Z,56.17
2024-01-05T00:29:28.298Z,55.77
2024-01-05T00:31:55.449Z,55.52
2024-01-05T00:34:22.636Z,55.53
2024-01-05T00:36:49.826Z,55.86
2024-01-05T00:39:17.671Z,55.98
2024-01-05T00:41:49.058Z,56.26
2024-01-05T00:44:16.310Z,56.38
2024-01-05T00:46:44.028Z,56.95
2024-01-05T00:49:11.524Z,56.65
2024-01-05T00:51:38.725Z,56.56
2024-01-05T00:54:05.974Z,56.63
2024-01-05T00:56:33.223Z,56.47
2024-01-05T00:59:00.294Z,57.06
2024-01-05T01:01:27.464Z,56.56
2024-01-05T01:03:55.096Z,56.70
2024-01-05T01:06:22.436Z,57.12
2024-01-05T01:08:49.596Z,57.09
2024-01-05T01:11:17.943Z,57.48
2024-01-05T01:13:46.001Z,57.19
2024-01-05T01:16:13.141Z,56.76
2024-01-05T01:18:40.684Z,56.21
2024-01-05T01:21:08.241Z,56.49
2024-01-05T01:23:35.597Z,57.13
2024-01-05T01:26:02.799Z,57.44
2024-01-05T01:28:30.808Z,57.23
2024-01-05T01:30:58.607Z,57.31
2024-01-05T01:33:25.976Z,57.56
2024-01-05T01:35:53.460Z,57.64
2024-01-05T01:38:20.743Z,57.61
2024-01-05T01:40:49.176Z,57.46
2024-01-05T01:43:28.506Z,57.43
2024-01-05T01:46:01.622Z,57.58
2024-01-05T01:48:30.915Z,57.62
2024-01-05T01:50:59.697Z,57.25
2024-01-05T01:53:28.974Z,57.32
2024-01-05T01:55:57.204Z,57.08
2024-01-05T01:58:24.525Z,57.43
2024-01-05T02:00:53.065Z,57.63
2024-01-05T02:03:21.225Z,57.90
2024-01-05T02:05:49.611Z,57.72
2024-01-05T02:08:17.632Z,57.84
2024-01-05T02:10:45.010Z,57.52
2024-01-05T02:13:12.398Z,57.57
2024-01-05T02:15:39.532Z,57.46
2024-01-05T02:18:16.943Z,57.19
2024-01-05T02:20:46.277Z,57.61
2024-01-05T02:23:27.957Z,57.54
2024-01-05T02:25:59.411Z,57.66
2024-01-05T02:28:26.682Z,58.01
2024-01-05T02:30:57.977Z,58.19
2024-01-05T02:33:25.872Z,57.87
2024-01-05T02:35:53.255Z,58.01
2024-01-05T02:38:20.439Z,58.04
2024-01-05T02:40:47.587Z,58.10
2024-01-05T02:43:14.832Z,57.83
2024-01-05T02:45:42.041Z,58.46
2024-01-05T02:48:10.016Z,58.10
2024-01-05T02:50:37.191Z,58.03
2024-01-05T02:53:04.475Z,58.25
2024-01-05T02:55:31.710Z,58.30
2024-01-05T02:57:58.819Z,58.48
2024-01-05T03:00:26.088Z,58.79
2024-01-05T03:02:53.406Z,58.89
2024-01-05T03:05:20.833Z,59.21
2024-01-05T03:07:48.020Z,59.35
2024-01-05T03:10:15.367Z,59.64
2024-01-05T03:12:43.152Z,59.75
2024-01-05T03:15:10.711Z,59.92
2024-01-05T03:17:38.010Z,60.01
2024-01-05T03:20:06.009Z,60.01
2024-01-05T03:22:33.194Z,60.27
2024-01-05T03:25:00.301Z,60.25
2024-01-05T03:27:27.424Z,60.40
2024-01-05T03:29:57.082Z,60.45
2024-01-05T03:32:24.446Z,60.38
2024-01-05T03:34:51.630Z,60.47
2024-01-05T03:37:18.741Z,60.40
2024-01-05T03:39:45.958Z,60.70
2024-01-05T03:42:13.104Z,60.35
2024-01-05T03:44:40.310Z,60.40
2024-01-05T03:47:07.443Z,60.08
2024-01-05T03:49:34.908Z,60.35
2024-01-05T03:52:02.460Z,60.88
2024-01-05T03:54:29.688Z,61.12
2024-01-05T03:56:56.908Z,60.98
2024-01-05T03:59:24.006Z,61.03
2024-01-05T04:01:51.132Z,61.10
2024-01-05T04:04:18.575Z,61.27
2024-01-05T04:06:46.974Z,61.23
2024-01-05T04:09:14.399Z,61.71
2024-01-05T04:11:42.022Z,61.85
2024-01-05T04:14:09.738Z,61.39
2024-01-05T04:16:36.912Z,61.50
2024-01-05T04:19:04.468Z,61.68
2024-01-05T04:21:32.182Z,61.61
2024-01-05T04:23:59.880Z,61.90
2024-01-05T04:26:27.392Z,62.17
2024-01-05T04:28:54.740Z,62.25
2024-01-05T04:31:22.227Z,62.38
2024-01-05T04:33:50.164Z,62.38
2024-01-05T04:36:17.821Z,62.30
2024-01-05T04:38:45.236Z,62.47
2024-01-05T04:41:15.354Z,62.60
2024-01-05T04:43:44.252Z,62.51
2024-01-05T04:46:11.815Z,62.67
2024-01-05T04:48:39.215Z,62.89
2024-01-05T04:51:06.714Z,62.93
2024-01-05T04:53:33.957Z,63.02
2024-01-05T04:56:01.069Z,63.49
2024-01-05T04:58:28.230Z,63.49
2024-01-05T05:00:55.757Z,63.32
2024-01-05T05:03:23.251Z,63.45
2024-01-05T05:05:50.615Z,63.57
2024-01-05T05:08:17.788Z,63.39
2024-01-05T05:10:45.003Z,63.45
2024-01-05T05:13:12.229Z,63.24
2024-01-05T05:15:39.926Z,63.20
2024-01-05T05:18:08.914Z,63.11
2024-01-05T05:20:36.153Z,63.37
2024-01-05T05:23:03.521Z,63.33
2024-01-05T05:25:30.604Z,63.30
2024-01-05T05:27:57.721Z,63.10
2024-01-05T05:30:25.184Z,63.18
2024-01-05T05:32:52.383Z,63.13
2024-01-05T05:35:19.862Z,63.04
2024-01-05T05:37:47.180Z,62.66
2024-01-05T05:40:14.554Z,62.60
2024-01-05T05:42:42.002Z,62.63
2024-01-05T05:45:10.050Z,62.58
2024-01-05T05:47:37.608Z,62.55
2024-01-05T05:50:08.643Z,62.40
2024-01-05T05:52:38.430Z,62.62
2024-01-05T05:55:07.801Z,62.63
2024-01-05T05:57:34.999Z,62.40
2024-01-05T06:00:03.103Z,62.51
2024-01-05T06:02:32.244Z,61.99
2024-01-05T06:04:59.325Z,61.68
2024-01-05T06:07:26.673Z,61.71
2024-01-05T06:09:58.128Z,61.75
2024-01-05T06:12:25.408Z,61.14
2024-01-05T06:14:52.705Z,61.21
2024-01-05T06:17:20.117Z,60.70
2024-01-05T06:19:47.477Z,60.79
2024-01-05T06:22:14.737Z,60.34
2024-01-05T06:24:41.992Z,60.47
2024-01-05T06:27:09.132Z,60.58
2024-01-05T06:29:36.260Z,60.83
2024-01-05T06:32:03.778Z,60.92
2024-01-05T06:34:31.381Z,60.86
2024-01-05T06:36:58.633Z,60.87
2024-01-05T06:39:25.909Z,60.54
2024-01-05T06:41:53.144Z,60.23
2024-01-05T06:44:20.584Z,60.24
2024-01-05T06:46:47.764Z,60.13
2024-01-05T06:49:15.148Z,60.23
2024-01-05T06:51:42.906Z,60.20
2024-01-05T06:54:10.449Z,60.09
2024-01-05T06:56:38.700Z,59.52
2024-01-05T06:59:06.063Z,59.51
2024-01-05T07:01:33.708Z,59.22
2024-01-05T07:04:01.384Z,59.33
2024-01-05T07:06:28.656Z,59.22
2024-01-05T07:08:55.867Z,59.05
2024-01-05T07:11:24.096Z,58.60
2024-01-05T07:13:52.189Z,58.77
2024-01-05T07:16:23.964Z,58.89
2024-01-05T07:18:51.468Z,58.75
2024-01-05T07:21:19.334Z,58.66
2024-01-05T07:23:47.131Z,58.64
2024-01-05T07:26:14.690Z,58.66
2024-01-05T07:28:42.000Z,58.46
2024-01-05T07:31:11.234Z,58.85
2024-01-05T07:33:41.527Z,58.53
2024-01-05T07:36:09.276Z,58.53
2024-01-05T07:38:36.919Z,58.04
2024-01-05T07:41:04.493Z,57.81
2024-01-05T07:43:32.082Z,57.79
2024-01-05T07:45:59.446Z,57.74
2024-01-05T07:48:26.725Z,57.81
2024-01-05T07:50:53.993Z,57.77
2024-01-05T07:53:21.196Z,57.78
2024-01-05T07:55:48.384Z,57.50
2024-01-05T07:58:15.708Z,57.72
2024-01-05T08:00:43.103Z,57.41
2024-01-05T08:03:12.389Z,57.37
2024-01-05T08:05:44.272Z,57.10
2024-01-05T08:08:13.365Z,57.32
2024-01-05T08:10:40.771Z,57.66
2024-01-05T08:13:08.000Z,57.61
2024-01-05T08:15:35.386Z,57.44
2024-01-05T08:18:04.263Z,57.35
2024-01-05T08:20:34.745Z,57.10
2024-01-05T08:23:03.121Z,57.39
2024-01-05T08:25:30.309Z,57.19
2024-01-05T08:27:57.477Z,56.76
2024-01-05T08:30:26.129Z,56.63
2024-01-05T08:32:56.440Z,56.90
2024-01-05T08:35:23.837Z,57.19
2024-01-05T08:37:51.011Z,57.16
2024-01-05T08:40:19.039Z,57.17
2024-01-05T08:42:47.189Z,57.02
2024-01-05T08:45:18.416Z,57.16
2024-01-05T08:47:46.016Z,57.21
2024-01-05T08:50:13.683Z,56.94
2024-01-05T08:52:41.017Z,57.07
2024-01-05T08:55:09.261Z,56.59
2024-01-05T08:57:37.045Z,56.54
2024-01-05T09:00:05.040Z,56.50
2024-01-05T09:02:32.227Z,56.61
2024-01-05T09:04:59.488Z,56.64
2024-01-05T09:07:26.708Z,56.69
2024-01-05T09:09:54.181Z,56.76
2024-01-05T09:12:21.370Z,56.36
2024-01-05T09:14:48.534Z,56.06
2024-01-05T09:17:15.639Z,56.06
2024-01-05T09:19:43.516Z,55.75
2024-01-05T09:22:11.586Z,55.85
2024-01-05T09:24:40.601Z,55.40
2024-01-05T09:27:07.823Z,55.42
2024-01-05T09:29:35.109Z,55.02
2024-01-05T09:32:02.348Z,54.86
2024-01-05T09:34:29.790Z,54.31
2024-01-05T09:36:56.968Z,54.13
2024-01-05T09:39:24.207Z,54.10
2024-01-05T09:41:51.397Z,54.07
2024-01-05T09:44:18.763Z,53.74
2024-01-05T09:46:46.914Z,53.58
2024-01-05T09:49:19.175Z,53.70
2024-01-05T09:51:47.048Z,53.64
2024-01-05T09:54:18.101Z,53.77
2024-01-05T09:56:50.247Z,53.67
2024-01-05T09:59:20.251Z,53.81
2024-01-05T10:01:51.927Z,53.46
2024-01-05T10:04:20.751Z,53.35
2024-01-05T10:07:04.053Z,52.58
2024-01-05T10:09:32.413Z,52.31
2024-01-05T10:12:00.365Z,51.83
2024-01-05T10:14:31.630Z,51.73
2024-01-05T10:17:12.600Z,51.51
2024-01-05T10:19:46.209Z,51.36
2024-01-05T10:22:15.920Z,50.64
2024-01-05T10:24:44.051Z,49.87
2024-01-05T10:27:14.640Z,49.34
2024-01-05T10:29:45.032Z,49.45
2024-01-05T10:32:25.285Z,48.78
2024-01-05T10:34:58.823Z,48.74
2024-01-05T10:37:26.477Z,49.03
2024-01-05T10:39:55.335Z,49.14
2024-01-05T10:42:26.189Z,48.96
2024-01-05T10:44:56.866Z,48.73
2024-01-05T10:47:30.669Z,48.51
2024-01-05T10:49:59.079Z,48.37
2024-01-05T10:52:33.808Z,48.37
2024-01-05T10:55:06.094Z,48.29
2024-01-05T10:57:38.199Z,48.20
2024-01-05T11:00:07.301Z,47.81
2024-01-05T11:02:40.295Z,47.73
2024-01-05T11:05:12.693Z,47.83
2024-01-05T11:07:42.154Z,48.31
2024-01-05T11:10:37.061Z,48.04
2024-01-05T11:13:22.665Z,48.01
2024-01-05T11:16:27.465Z,48.03
2024-01-05T11:19:28.438Z,48.18
2024-01-05T11:22:05.670Z,48.35
2024-01-05T11:24:37.862Z,48.67
2024-01-05T11:27:29.764Z,48.53
2024-01-05T11:29:58.669Z,48.33
2024-01-05T11:32:35.449Z,47.97
2024-01-05T11:35:05.997Z,48.23
2024-01-05T11:37:33.528Z,47.53
2024-01-05T11:40:01.961Z,47.16
2024-01-05T11:42:32.803Z,46.70
2024-01-05T11:45:06.091Z,46.03
2024-01-05T11:47:49.187Z,45.13
2024-01-05T11:50:37.460Z,44.70
2024-01-05T11:53:14.034Z,44.30
2024-01-05T11:56:12.624Z,41.37
2024-01-05T11:58:42.209Z,39.63
2024-01-05T12:01:14.710Z,38.90
2024-01-05T12:03:43.274Z,39.64
2024-01-05T12:06:12.676Z,40.75
2024-01-05T12:08:41.795Z,41.18
2024-01-05T12:11:12.329Z,41.12
2024-01-05T12:13:40.252Z,38.87
2024-01-05T12:16:10.481Z,37.55
2024-01-05T12:18:52.158Z,36.68
2024-01-05T12:21:23.346Z,37.56
2024-01-05T12:23:56.475Z,38.38
2024-01-05T12:26:24.988Z,39.07
2024-01-05T12:28:52.847Z,39.09
2024-01-05T12:31:21.378Z,38.64
2024-01-05T12:33:49.186Z,39.14
2024-01-05T12:36:30.092Z,39.19
2024-01-05T12:39:12.691Z,40.40
2024-01-05T12:41:45.426Z,41.16
2024-01-05T12:44:15.744Z,42.12
2024-01-05T12:46:48.126Z,42.35
2024-01-05T12:49:24.931Z,42.73
2024-01-05T12:51:54.286Z,42.99
2024-01-05T12:54:26.913Z,42.61
2024-01-05T12:57:01.755Z,42.74
2024-01-05T12:59:29.367Z,43.08
2024-01-05T13:02:01.535Z,42.67
2024-01-05T13:04:40.965Z,42.95
2024-01-05T13:07:14.543Z,42.90
2024-01-05T13:09:43.054Z,43.00
2024-01-05T13:12:11.888Z,42.76
2024-01-05T13:14:40.685Z,43.05
2024-01-05T13:17:07.875Z,43.27
2024-01-05T13:19:37.909Z,43.34
2024-01-05T13:22:10.964Z,43.12
2024-01-05T13:24:39.512Z,43.04
2024-01-05T13:27:09.475Z,43.43
2024-01-05T13:29:39.850Z,43.40
2024-01-05T13:32:07.420Z,43.58
2024-01-05T13:34:34.825Z,44.20
2024-01-05T13:37:02.156Z,43.82
2024-01-05T13:39:29.466Z,43.61
2024-01-05T13:41:59.502Z,43.19
2024-01-05T13:44:27.755Z,42.74
2024-01-05T13:46:54.839Z,43.55
2024-01-05T13:49:24.778Z,43.61
2024-01-05T13:51:52.933Z,43.63
2024-01-05T13:54:20.978Z,43.79
2024-01-05T13:56:48.957Z,43.59
2024-01-05T13:59:16.029Z,43.19
2024-01-05T14:01:46.267Z,43.45
2024-01-05T14:04:13.439Z,43.77
2024-01-05T14:06:40.778Z,43.67
2024-01-05T14:09:08.078Z,43.60
2024-01-05T14:11:35.547Z,43.80
2024-01-05T14:14:02.666Z,44.98
2024-01-05T14:16:29.877Z,45.51
2024-01-05T14:18:57.398Z,45.80
2024-01-05T14:21:27.587Z,46.10
2024-01-05T14:23:54.914Z,46.52
2024-01-05T14:26:22.142Z,47.06
2024-01-05T14:28:49.967Z,47.39
2024-01-05T14:31:37.394Z,47.30
2024-01-05T14:34:04.943Z,47.81
2024-01-05T14:36:32.243Z,48.24
2024-01-05T14:38:59.875Z,48.73
2024-01-05T14:41:29.519Z,48.86
2024-01-05T14:43:57.377Z,49.16
2024-01-05T14:46:24.537Z,49.33
2024-01-05T14:48:52.057Z,49.41
2024-01-05T14:51:19.403Z,49.40
2024-01-05T14:53:46.703Z,49.74
2024-01-05T14:56:18.582Z,49.85
2024-01-05T14:58:47.970Z,49.80
2024-01-05T15:01:17.008Z,50.23
2024-01-05T15:03:44.455Z,50.17
2024-01-05T15:06:12.396Z,50.59
2024-01-05T15:08:39.848Z,50.75
2024-01-05T15:11:07.627Z,50.72
2024-01-05T15:13:35.719Z,50.97
2024-01-05T15:16:04.985Z,50.90
2024-01-05T15:18:32.697Z,51.34
2024-01-05T15:21:00.008Z,51.13
2024-01-05T15:23:27.186Z,51.17
2024-01-05T15:25:54.406Z,51.30
2024-01-05T15:28:21.650Z,51.16
2024-01-05T15:30:48.913Z,51.35
2024-01-05T15:33:19.731Z,51.43
2024-01-05T15:35:47.322Z,51.40
2024-01-05T15:38:14.494Z,51.39
2024-01-05T15:40:41.850Z,51.32
2024-01-05T15:43:09.252Z,51.48
2024-01-05T15:45:37.182Z,51.71
2024-01-05T15:48:06.277Z,51.94
2024-01-05T15:50:33.628Z,52.07
2024-01-05T15:53:00.839Z,52.17
2024-01-05T15:55:28.019Z,52.36
2024-01-05T15:57:55.938Z,52.09
2024-01-05T16:00:23.213Z,51.74
2024-01-05T16:02:50.473Z,52.31
2024-01-05T16:05:18.159Z,52.61
2024-01-05T16:07:46.148Z,52.17
2024-01-05T16:10:13.890Z,52.20
2024-01-05T16:12:44.536Z,52.13
2024-01-05T16:15:14.164Z,52.25
2024-01-05T16:17:43.478Z,52.35
2024-01-05T16:20:11.752Z,52.60
2024-01-05T16:22:38.855Z,52.54
2024-01-05T16:25:06.308Z,52.40
2024-01-05T16:27:36.820Z,52.16
2024-01-05T16:30:05.915Z,52.36
2024-01-05T16:32:34.762Z,52.55
2024-01-05T16:35:02.312Z,52.33
2024-01-05T16:37:29.548Z,52.12
2024-01-05T16:39:56.667Z,52.45
2024-01-05T16:42:24.436Z,52.60
2024-01-05T16:44:52.021Z,52.81
2024-01-05T16:47:19.874Z,52.89
2024-01-05T16:49:47.098Z,52.74
2024-01-05T16:52:14.327Z,52.72
2024-01-05T16:54:41.467Z,52.33
2024-01-05T16:57:08.811Z,51.98
2024-01-05T16:59:36.326Z,51.54
2024-01-05T17:02:03.881Z,51.64
2024-01-05T17:04:34.005Z,51.39
2024-01-05T17:07:01.808Z,51.30
2024-01-05T17:09:29.251Z,51.14
2024-01-05T17:11:58.341Z,51.21
2024-01-05T17:14:25.930Z,51.37
2024-01-05T17:16:53.078Z,51.77
2024-01-05T17:19:20.375Z,51.42
2024-01-05T17:21:49.103Z,51.79
2024-01-05T17:24:16.530Z,51.62
2024-01-05T17:26:43.823Z,51.81
2024-01-05T17:29:11.225Z,52.20
2024-01-05T17:31:38.584Z,52.22
2024-01-05T17:34:06.119Z,52.16
2024-01-05T17:36:40.533Z,52.84
2024-01-05T17:39:07.936Z,52.71
2024-01-05T17:41:36.073Z,53.11
2024-01-05T17:44:04.860Z,53.16
2024-01-05T17:46:32.234Z,53.10
2024-01-05T17:49:00.177Z,53.26
2024-01-05T17:51:33.647Z,53.26
2024-01-05T17:54:01.387Z,53.26
2024-01-05T17:56:34.057Z,53.60
2024-01-05T17:59:04.627Z,53.43
2024-01-05T18:01:33.868Z,53.41
2024-01-05T18:04:01.412Z,52.88
2024-01-05T18:06:29.052Z,52.91
2024-01-05T18:08:56.219Z,52.99
2024-01-05T18:11:27.756Z,52.92
2024-01-05T18:13:55.662Z,52.81
2024-01-05T18:16:25.287Z,53.11
2024-01-05T18:18:59.332Z,53.25
2024-01-05T18:21:28.924Z,53.39
2024-01-05T18:23:57.554Z,53.60
2024-01-05T18:26:25.918Z,53.65
2024-01-05T18:28:53.112Z,54.08
2024-01-05T18:31:27.995Z,54.09
2024-01-05T18:33:56.436Z,54.19
2024-01-05T18:36:24.505Z,54.21
2024-01-05T18:38:52.114Z,54.09
2024-01-05T18:41:45.813Z,54.33
2024-01-05T18:44:14.900Z,54.37
2024-01-05T18:46:43.009Z,54.43
2024-01-05T18:49:10.661Z,54.19
2024-01-05T18:51:38.527Z,54.35
2024-01-05T18:54:08.810Z,54.54
2024-01-05T18:56:36.460Z,54.30
2024-01-05T18:59:05.068Z,54.48
2024-01-05T19:01:33.214Z,54.33
2024-01-05T19:04:01.196Z,54.41
2024-01-05T19:06:28.693Z,54.28
2024-01-05T19:08:56.012Z,54.57
2024-01-05T19:11:23.502Z,54.77
2024-01-05T19:13:51.003Z,54.97
2024-01-05T19:16:21.176Z,55.00
2024-01-05T19:18:49.416Z,55.01
2024-01-05T19:21:17.150Z,55.60
2024-01-05T19:23:44.423Z,55.71
2024-01-05T19:26:21.877Z,55.73
2024-01-05T19:28:51.146Z,56.01
2024-01-05T19:31:24.402Z,56.16
2024-01-05T19:33:52.555Z,56.27
2024-01-05T19:36:22.327Z,56.27
2024-01-05T19:38:49.613Z,56.36
2024-01-05T19:41:17.443Z,56.69
2024-01-05T19:43:44.841Z,56.94
2024-01-05T19:46:15.067Z,56.81
2024-01-05T19:48:42.378Z,57.18
2024-01-05T19:51:13.964Z,57.15
2024-01-05T19:53:42.083Z,57.23
2024-01-05T19:56:09.477Z,57.50
2024-01-05T19:58:36.813Z,57.58
2024-01-05T20:01:05.803Z,57.53
2024-01-05T20:03:34.721Z,57.61
2024-01-05T20:06:02.626Z,57.57
2024-01-05T20:08:29.911Z,57.38
2024-01-05T20:10:57.179Z,57.56
2024-01-05T20:13:24.808Z,57.75
2024-01-05T20:15:52.328Z,57.98
2024-01-05T20:18:19.694Z,58.04
2024-01-05T20:20:47.121Z,57.47
2024-01-05T20:23:15.143Z,57.88
2024-01-05T20:25:42.683Z,58.15
2024-01-05T20:28:10.182Z,58.50
2024-01-05T20:30:39.022Z,58.55
2024-01-05T20:33:06.742Z,58.55
2024-01-05T20:35:33.973Z,58.27
2024-01-05T20:38:01.230Z,58.31
2024-01-05T20:40:31.115Z,58.51
2024-01-05T20:42:59.919Z,58.42
2024-01-05T20:45:27.159Z,58.50
2024-01-05T20:47:54.556Z,58.60
2024-01-05T20:50:21.866Z,58.76
2024-01-05T20:52:49.142Z,58.88
2024-01-05T20:55:16.396Z,58.80
2024-01-05T20:57:43.551Z,58.92
2024-01-05T21:00:11.541Z,59.27
2024-01-05T21:02:38.694Z,59.35
2024-01-05T21:05:06.708Z,59.44
2024-01-05T21:07:36.708Z,59.43
2024-01-05T21:10:05.520Z,59.75
2024-01-05T21:12:32.875Z,59.15
2024-01-05T21:15:00.078Z,59.54
2024-01-05T21:17:27.924Z,59.68
2024-01-05T21:19:56.601Z,59.92
2024-01-05T21:22:23.943Z,59.96
2024-01-05T21:24:52.827Z,59.69
2024-01-05T21:27:20.147Z,59.81
2024-01-05T21:29:47.440Z,59.75
2024-01-05T21:32:17.005Z,59.80
2024-01-05T21:34:45.073Z,59.96
2024-01-05T21:37:15.932Z,59.79
2024-01-05T21:39:43.161Z,60.05
2024-01-05T21:42:11.595Z,60.21
2024-01-05T21:44:38.961Z,60.50
2024-01-05T21:47:06.393Z,60.90
2024-01-05T21:49:33.946Z,60.74
2024-01-05T21:52:01.235Z,60.50
2024-01-05T21:54:28.457Z,60.28
2024-01-05T21:56:55.885Z,60.16
2024-01-05T21:59:23.712Z,60.54
2024-01-05T22:01:50.978Z,60.61
2024-01-05T22:04:18.436Z,60.45
2024-01-05T22:06:46.109Z,60.23
2024-01-05T22:09:13.410Z,60.41
2024-01-05T22:11:44.618Z,60.09
2024-01-05T22:14:12.939Z,60.02
2024-01-05T22:16:43.812Z,60.29
2024-01-05T22:19:11.505Z,60.52
2024-01-05T22:21:38.965Z,60.79
2024-01-05T22:24:06.666Z,60.70
2024-01-05T22:26:34.485Z,60.29
2024-01-05T22:29:03.728Z,60.75
2024-01-05T22:31:32.402Z,60.74
2024-01-05T22:34:00.471Z,60.53
2024-01-05T22:36:28.017Z,60.80
2024-01-05T22:38:55.406Z,61.03
2024-01-05T22:41:27.052Z,60.93
2024-01-05T22:43:54.755Z,60.77
2024-01-05T22:46:25.000Z,60.64
2024-01-05T22:48:52.268Z,60.92
2024-01-05T22:51:25.207Z,60.92
2024-01-05T22:53:52.524Z,60.88
2024-01-05T22:56:19.843Z,60.59
2024-01-05T22:58:47.818Z,60.95
2024-01-05T23:01:23.951Z,60.86
2024-01-05T23:03:53.120Z,61.05
2024-01-05T23:06:20.985Z,60.96
2024-01-05T23:08:48.434Z,60.85
2024-01-05T23:11:15.745Z,60.72
2024-01-05T23:13:42.895Z,60.64
2024-01-05T23:16:10.409Z,60.57
2024-01-05T23:18:37.715Z,60.71
2024-01-05T23:21:05.400Z,61.18
2024-01-05T23:23:32.628Z,61.21
2024-01-05T23:26:00.126Z,61.50
2024-01-05T23:28:27.349Z,61.49
2024-01-05T23:30:54.821Z,61.65
2024-01-05T23:33:22.308Z,61.47
2024-01-05T23:35:51.102Z,61.63
2024-01-05T23:38:18.540Z,61.57
2024-01-05T23:40:47.970Z,61.25
2024-01-05T23:43:15.167Z,61.09
2024-01-05T23:45:42.457Z,61.25
2024-01-05T23:48:10.721Z,61.23
2024-01-05T23:50:38.011Z,61.10
2024-01-05T23:53:06.117Z,60.96
2024-01-05T23:55:33.388Z,60.83
2024-01-05T23:58:00.538Z,60.44
